Aculco, Mexico
Current Conditions -  °F | °C
As of 10:45 AM on Saturday 25 Oct 2014 (Local Time) from MMQT Reporting Station
Broken Clouds Broken Clouds  
Wind Chill: 64°   Ceiling: 2000
Heat Index: 64°   Visibility: 7mi
Dew Point: 46°   Wind: 17mph
Humidity: 52%   Direction: 100°E
Pressure: 30.43"   Gusts: NA
Location:  20.12°N, 99.83°W
Report Text: MMQT 251545Z 10015KT 7SM BKN020 BKN120 18/08 A3043 RMK 8/530
Loading
Personal Weather Stations






























Interactive Weather Map
Tropical Storm Tracking
New forecast layout! Learn more

10-Day Weather Forecast

Advertisements
Track Severe Weather on mobile